Time;durP1;ratioP1;P1;durP2;ratioP2;P2;SDS_P1;SDS_P2;PMS_P1;PMS_P2;Temp;Humidity;BMP_temperature;BMP_pressure;BME280_temperature;BME280_humidity;BME280_pressure;Samples;Min_cycle;Max_cycle;Signal;HPM_P1;HPM_P2
2024/02/11 00:05:30;;;;;;;21.83;13.35;;;;;;;8.57;86.06;95811.56;4959396;28;103227;-69
2024/02/11 00:07:58;;;;;;;22.65;12.20;;;;;;;8.66;85.80;95826.03;4960273;28;103212;-70
2024/02/11 00:19:07;;;;;;;24.05;16.02;;;;;;;8.20;87.11;95820.34;4956423;28;103177;-67
2024/02/11 00:21:35;;;;;;;27.73;16.90;;;;;;;8.22;87.58;95825.41;4958650;28;104248;-67
2024/02/11 00:24:03;;;;;;;23.15;14.50;;;;;;;8.34;87.24;95822.78;4956527;28;102668;-67
2024/02/11 00:26:31;;;;;;;21.50;13.02;;;;;;;8.41;86.76;95826.13;4960550;28;102575;-71
2024/02/11 00:28:59;;;;;;;23.15;12.65;;;;;;;8.51;87.11;95829.06;4959174;28;103211;-71
2024/02/11 00:35:48;;;;;;;16.17;11.18;;;;;;;8.53;86.33;95832.28;4956598;28;102823;-70
2024/02/11 00:38:17;;;;;;;14.93;10.95;;;;;;;8.58;86.04;95836.88;4957146;28;103955;-70
2024/02/11 00:40:45;;;;;;;16.38;11.40;;;;;;;8.61;85.86;95837.22;4969287;28;104173;-68
2024/02/11 00:43:15;;;;;;;19.05;10.65;;;;;;;8.66;86.03;95838.38;4955275;28;103228;-68
2024/02/11 00:45:43;;;;;;;16.52;11.45;;;;;;;8.64;85.49;95838.63;4960399;28;102957;-70
2024/02/11 00:48:11;;;;;;;16.10;11.15;;;;;;;8.65;85.27;95839.41;4957834;28;104267;-70
2024/02/11 00:50:40;;;;;;;17.90;12.05;;;;;;;8.70;85.66;95845.63;4957562;28;103141;-70
2024/02/11 00:53:10;;;;;;;24.23;15.23;;;;;;;8.66;85.64;95844.50;4960848;28;103297;-70
2024/02/11 00:55:38;;;;;;;22.92;14.15;;;;;;;8.68;85.39;95847.69;4964091;28;102685;-70
2024/02/11 00:58:09;;;;;;;19.08;12.38;;;;;;;8.70;85.54;95858.84;4958369;28;103141;-70
2024/02/11 01:00:37;;;;;;;25.27;14.13;;;;;;;8.62;84.96;95865.22;4956247;28;103890;-71
2024/02/11 01:03:05;;;;;;;21.85;13.77;;;;;;;8.63;85.13;95863.38;4960416;28;103207;-70
2024/02/11 01:05:36;;;;;;;20.88;13.57;;;;;;;8.63;85.33;95866.84;4952899;28;103159;-70
2024/02/11 01:24:48;;;;;;;18.98;12.02;;;;;;;8.44;85.64;95873.97;4956672;28;103660;-68
2024/02/11 01:31:40;;;;;;;21.27;14.65;;;;;;;8.41;86.09;95882.34;4953237;28;103280;-68
2024/02/11 01:38:27;;;;;;;23.38;12.02;;;;;;;8.58;86.16;95877.28;4960444;28;103907;-68
2024/02/11 01:45:20;;;;;;;22.88;14.02;;;;;;;8.40;86.00;95886.00;4950946;28;103061;-66
2024/02/11 01:47:48;;;;;;;19.63;12.82;;;;;;;8.34;86.72;95889.53;4974706;28;102708;-68
2024/02/11 01:50:19;;;;;;;22.80;14.55;;;;;;;8.35;86.88;95888.50;4962025;28;102683;-68
2024/02/11 01:52:49;;;;;;;17.08;11.35;;;;;;;8.52;86.38;95880.00;4955370;28;104459;-67
2024/02/11 01:55:19;;;;;;;17.73;12.23;;;;;;;8.46;86.87;95879.88;4969697;28;103278;-68
2024/02/11 02:06:28;;;;;;;24.90;15.95;;;;;;;8.33;87.51;95882.63;4957309;28;103095;-68
2024/02/11 02:08:59;;;;;;;18.13;12.88;;;;;;;8.34;87.00;95884.25;4958140;28;103181;-68
2024/02/11 02:15:46;;;;;;;18.25;11.85;;;;;;;8.50;86.87;95884.69;4955279;28;102934;-69
2024/02/11 02:22:27;;;;;;;22.48;14.38;;;;;;;8.28;87.53;95883.31;4955618;28;103070;-68
2024/02/11 02:24:55;;;;;;;23.10;14.07;;;;;;;8.36;87.48;95900.66;4957395;28;103081;-68
2024/02/11 02:27:25;;;;;;;23.70;14.70;;;;;;;8.37;87.35;95893.53;4958829;28;104172;-67
2024/02/11 02:29:53;;;;;;;18.95;12.75;;;;;;;8.48;87.25;95897.31;4955528;28;104312;-67
2024/02/11 02:32:21;;;;;;;18.75;12.82;;;;;;;8.49;86.96;95893.63;4960266;28;104355;-68
2024/02/11 02:39:16;;;;;;;17.63;11.93;;;;;;;8.60;87.22;95906.06;4959931;28;102653;-68
2024/02/11 02:45:58;;;;;;;16.77;11.70;;;;;;;8.67;87.03;95906.75;4953343;28;103059;-68
2024/02/11 02:48:28;;;;;;;20.27;12.70;;;;;;;8.71;86.88;95909.75;4958281;28;102777;-68
2024/02/11 02:50:57;;;;;;;17.42;12.77;;;;;;;8.71;86.51;95905.31;4960441;28;104156;-68
2024/02/11 02:53:26;;;;;;;19.65;11.85;;;;;;;8.74;86.50;95907.47;4957874;28;104525;-70
2024/02/11 02:55:56;;;;;;;18.70;12.73;;;;;;;8.70;86.41;95913.41;4958110;28;103243;-71
2024/02/11 03:02:57;;;;;;;22.13;14.05;;;;;;;8.66;86.26;95907.81;4951508;28;104068;-70
2024/02/11 03:14:19;;;;;;;16.90;10.77;;;;;;;8.73;86.43;95926.97;4961540;28;103052;-71
2024/02/11 03:25:43;;;;;;;14.07;8.15;;;;;;;8.30;86.97;95960.38;4956207;28;103199;-71
2024/02/11 03:37:29;;;;;;;1.20;0.70;;;;;;;7.86;83.42;95996.53;4957178;28;103321;-70
2024/02/11 03:39:57;;;;;;;2.20;0.93;;;;;;;7.74;83.94;95992.97;4974575;28;104154;-70
2024/02/11 03:46:49;;;;;;;0.47;0.30;;;;;;;7.54;82.98;96006.31;4956643;28;102835;-70
2024/02/11 03:53:38;;;;;;;1.00;0.70;;;;;;;7.52;82.94;96032.88;4956668;28;103105;-70
2024/02/11 04:05:04;;;;;;;0.65;0.25;;;;;;;7.18;82.34;96042.00;4955010;28;103113;-70
2024/02/11 04:16:22;;;;;;;0.20;0.20;;;;;;;6.79;82.48;96078.84;4954301;28;104133;-70
2024/02/11 04:27:23;;;;;;;0.30;0.30;;;;;;;6.67;81.40;96075.22;4958399;28;103732;-69
2024/02/11 04:39:07;;;;;;;0.47;0.32;;;;;;;6.54;81.33;96089.25;4953809;28;103036;-69
2024/02/11 04:45:56;;;;;;;1.63;0.40;;;;;;;6.51;81.99;96102.78;4956637;28;104127;-70
2024/02/11 04:48:24;;;;;;;1.45;0.38;;;;;;;6.63;81.39;96103.78;4959108;28;104211;-70
2024/02/11 04:50:53;;;;;;;0.73;0.40;;;;;;;6.69;81.81;96092.44;4957779;28;103198;-70
2024/02/11 04:53:21;;;;;;;0.50;0.40;;;;;;;6.86;82.03;96103.28;4954301;28;102681;-70
2024/02/11 05:00:10;;;;;;;2.00;0.40;;;;;;;6.27;82.74;96120.84;4952804;28;103858;-67
2024/02/11 05:11:21;;;;;;;0.35;0.30;;;;;;;6.60;82.55;96126.06;4958188;28;102739;-68
2024/02/11 05:22:35;;;;;;;1.30;0.40;;;;;;;6.31;82.42;96137.81;4953032;28;102649;-67
2024/02/11 05:33:55;;;;;;;0.30;0.30;;;;;;;6.34;81.89;96155.84;4954546;28;103662;-67
2024/02/11 05:45:06;;;;;;;2.75;0.50;;;;;;;6.52;81.70;96159.66;4955639;28;103963;-67
2024/02/11 05:47:37;;;;;;;0.57;0.40;;;;;;;6.40;81.97;96160.25;4958755;28;103017;-67
2024/02/11 05:50:08;;;;;;;0.30;0.30;;;;;;;6.37;81.78;96154.63;4957970;28;102599;-69
2024/02/11 05:52:36;;;;;;;0.30;0.28;;;;;;;6.43;82.61;96167.75;4962295;28;103621;-69
2024/02/11 05:59:55;;;;;;;0.63;0.30;;;;;;;6.49;82.95;96179.25;4957264;28;103077;-68
2024/02/11 06:11:20;;;;;;;0.63;0.40;;;;;;;6.40;82.42;96196.25;4954872;28;103952;-67
2024/02/11 06:22:47;;;;;;;1.80;0.40;;;;;;;6.24;81.70;96211.44;4944016;28;102795;-68
2024/02/11 06:29:43;;;;;;;0.40;0.40;;;;;;;6.07;81.90;96224.16;4941619;28;103460;-67
2024/02/11 06:32:11;;;;;;;0.70;0.40;;;;;;;6.03;81.84;96228.19;4956626;28;103266;-68
2024/02/11 06:34:40;;;;;;;0.35;0.35;;;;;;;5.98;81.36;96227.97;4953558;28;102831;-67
2024/02/11 06:37:09;;;;;;;0.30;0.30;;;;;;;6.10;82.07;96226.38;4943488;28;103207;-67
2024/02/11 06:44:03;;;;;;;0.40;0.40;;;;;;;6.08;81.32;96233.66;4956757;28;103202;-68
2024/02/11 06:46:33;;;;;;;0.55;0.38;;;;;;;5.91;81.85;96237.66;4975280;28;102781;-69
2024/02/11 06:49:01;;;;;;;0.98;0.40;;;;;;;6.07;81.83;96239.91;4958679;28;103326;-69
2024/02/11 06:51:31;;;;;;;0.95;0.57;;;;;;;6.10;82.08;96236.88;4954171;28;104056;-69
2024/02/11 06:54:00;;;;;;;0.55;0.55;;;;;;;5.93;81.78;96244.28;4959492;28;103165;-70
2024/02/11 07:05:09;;;;;;;1.08;0.80;;;;;;;5.98;82.91;96255.06;4955497;28;103173;-71
2024/02/11 07:12:05;;;;;;;0.95;0.77;;;;;;;5.84;82.27;96269.13;4950182;28;102655;-70
2024/02/11 07:19:03;;;;;;;2.97;0.90;;;;;;;5.88;82.26;96274.81;4957961;28;102999;-70
2024/02/11 07:26:04;;;;;;;1.73;0.90;;;;;;;5.88;81.65;96290.56;4954693;28;103799;-68
2024/02/11 07:28:32;;;;;;;0.73;0.68;;;;;;;5.89;82.05;96297.44;4954308;28;104084;-69
2024/02/11 07:39:53;;;;;;;1.77;0.70;;;;;;;5.82;82.21;96300.84;4957278;28;102614;-69
2024/02/11 07:42:22;;;;;;;2.10;0.85;;;;;;;5.90;81.84;96307.75;4955934;28;104557;-68
2024/02/11 07:44:55;;;;;;;5.22;1.17;;;;;;;5.96;82.04;96303.53;4954628;28;103883;-69
2024/02/11 07:47:24;;;;;;;3.70;1.60;;;;;;;6.06;81.52;96311.88;4960393;28;102740;-69
2024/02/11 07:49:52;;;;;;;4.55;1.48;;;;;;;6.07;82.15;96316.13;4956715;28;102630;-69
2024/02/11 07:56:46;;;;;;;1.35;1.08;;;;;;;6.11;81.27;96317.34;4952214;28;103138;-69
2024/02/11 08:03:27;;;;;;;1.88;1.20;;;;;;;6.21;80.75;96326.66;4958706;28;102904;-69
2024/02/11 08:26:39;;;;;;;1.88;1.38;;;;;;;6.42;80.03;96341.47;4938946;28;103041;-68
2024/02/11 08:37:56;;;;;;;4.55;2.38;;;;;;;6.44;79.70;96339.47;4927058;28;103948;-69
2024/02/11 08:40:26;;;;;;;6.47;2.78;;;;;;;6.50;79.79;96353.63;4929201;28;103231;-69
2024/02/11 08:42:58;;;;;;;6.50;2.65;;;;;;;6.45;79.97;96355.03;4929133;28;103167;-68
2024/02/11 08:45:26;;;;;;;5.28;3.05;;;;;;;6.56;80.35;96360.72;4947604;28;103255;-69
2024/02/11 08:47:54;;;;;;;7.50;2.65;;;;;;;6.56;79.92;96358.88;4943751;28;104449;-69
2024/02/11 08:50:23;;;;;;;5.78;2.53;;;;;;;6.58;80.12;96370.03;4947608;28;103286;-69
2024/02/11 08:52:53;;;;;;;8.55;3.13;;;;;;;6.63;80.39;96367.59;4949916;28;103412;-69
2024/02/11 08:55:21;;;;;;;8.23;3.08;;;;;;;6.76;79.12;96363.38;4952305;28;102969;-69
2024/02/11 08:57:50;;;;;;;7.60;3.45;;;;;;;6.90;79.42;96366.81;4946470;28;104609;-69
2024/02/11 09:00:40;;;;;;;9.77;4.10;;;;;;;6.94;78.97;96370.66;4944016;28;103251;-69
2024/02/11 09:03:08;;;;;;;8.55;3.53;;;;;;;7.03;78.82;96366.81;4946531;28;103181;-69
2024/02/11 09:05:36;;;;;;;9.20;3.75;;;;;;;6.96;78.68;96377.34;4948626;28;103752;-69
2024/02/11 09:08:06;;;;;;;9.15;3.40;;;;;;;7.00;78.27;96377.75;4946507;28;102974;-69
2024/02/11 09:10:34;;;;;;;6.38;4.10;;;;;;;7.11;78.38;96373.69;4946370;28;103226;-69
2024/02/11 09:13:02;;;;;;;11.32;4.25;;;;;;;7.28;78.61;96380.19;4950700;28;103047;-69
2024/02/11 09:15:32;;;;;;;6.88;3.63;;;;;;;7.31;77.72;96378.97;4950527;28;104175;-69
2024/02/11 09:18:00;;;;;;;9.20;3.97;;;;;;;7.33;77.89;96376.94;4946382;28;103745;-69
2024/02/11 09:20:28;;;;;;;11.43;3.67;;;;;;;7.32;78.84;96380.56;4946830;28;103360;-70
2024/02/11 09:22:57;;;;;;;9.48;3.67;;;;;;;7.35;78.61;96377.53;4946027;28;102667;-69
2024/02/11 09:25:25;;;;;;;7.95;3.28;;;;;;;7.47;78.13;96383.00;4948331;28;102709;-69
2024/02/11 09:27:56;;;;;;;9.82;3.70;;;;;;;7.32;77.15;96391.09;4945570;28;103875;-69
2024/02/11 09:30:29;;;;;;;9.75;4.18;;;;;;;7.42;77.37;96390.69;4949709;28;103929;-69
2024/02/11 09:41:45;;;;;;;8.13;3.53;;;;;;;7.14;77.99;96392.53;4953989;28;103427;-69
2024/02/11 09:44:14;;;;;;;11.35;3.70;;;;;;;7.24;77.65;96397.38;4970950;28;104345;-71
2024/02/11 09:46:45;;;;;;;8.23;3.47;;;;;;;7.43;77.65;96400.22;4956394;28;102750;-71
2024/02/11 09:49:16;;;;;;;8.70;3.70;;;;;;;7.34;76.99;96404.88;4950095;28;103797;-71
2024/02/11 09:51:46;;;;;;;7.82;3.45;;;;;;;7.38;78.02;96400.03;4952472;28;104312;-71
2024/02/11 09:54:16;;;;;;;6.03;3.25;;;;;;;7.40;77.78;96397.97;4955299;28;104665;-70
2024/02/11 09:56:45;;;;;;;7.45;3.63;;;;;;;7.37;78.10;96404.47;4955742;28;103090;-70
2024/02/11 09:59:13;;;;;;;7.93;3.45;;;;;;;7.46;77.12;96416.41;4906525;28;104215;-69
2024/02/11 10:01:42;;;;;;;7.47;3.20;;;;;;;7.39;76.24;96413.00;4932411;28;103221;-69
2024/02/11 10:04:11;;;;;;;7.03;3.20;;;;;;;7.51;76.93;96415.00;4951526;28;104611;-70
2024/02/11 10:06:45;;;;;;;8.93;3.00;;;;;;;7.60;76.92;96419.06;4949834;28;103835;-69
2024/02/11 10:09:14;;;;;;;9.32;3.10;;;;;;;7.59;75.83;96417.41;4935058;28;103730;-69
2024/02/11 10:11:43;;;;;;;11.38;3.20;;;;;;;7.47;75.02;96418.03;4934426;28;104432;-70
2024/02/11 10:14:13;;;;;;;5.38;3.10;;;;;;;7.56;75.73;96423.09;4950974;28;102720;-69
2024/02/11 10:16:42;;;;;;;6.40;3.00;;;;;;;7.61;75.59;96421.47;4956114;28;102676;-69
2024/02/11 10:19:11;;;;;;;8.77;2.88;;;;;;;7.74;75.54;96420.66;4951353;28;103646;-70
2024/02/11 10:21:44;;;;;;;11.45;3.33;;;;;;;7.69;74.64;96423.09;4948303;28;104360;-70
2024/02/11 10:24:17;;;;;;;8.90;3.30;;;;;;;7.84;75.19;96430.75;4954354;28;103239;-69
2024/02/11 10:26:47;;;;;;;8.00;3.30;;;;;;;7.83;74.69;96428.31;4954753;28;103304;-69
2024/02/11 10:29:19;;;;;;;8.73;3.78;;;;;;;7.88;75.53;96428.50;4951983;28;103294;-69
2024/02/11 10:31:48;;;;;;;9.60;3.67;;;;;;;8.00;75.88;96432.13;4953094;28;103980;-69
2024/02/11 10:34:16;;;;;;;7.13;2.97;;;;;;;8.09;75.38;96432.72;4955722;22;103816;-70
2024/02/11 10:36:48;;;;;;;10.07;4.45;;;;;;;8.10;74.61;96445.69;4975089;22;103095;-69
2024/02/11 10:39:16;;;;;;;6.32;3.05;;;;;;;8.02;73.96;96447.72;4967099;28;102747;-69
2024/02/11 10:41:44;;;;;;;7.00;3.03;;;;;;;8.32;75.04;96447.22;4970228;28;104211;-70
2024/02/11 10:44:13;;;;;;;8.20;2.97;;;;;;;8.43;74.65;96438.66;4976387;28;103368;-69
2024/02/11 10:47:17;;;;;;;7.85;2.85;;;;;;;8.37;73.60;96450.88;4974662;28;102792;-70
2024/02/11 10:50:11;;;;;;;7.85;2.47;;;;;;;8.22;73.02;96448.47;4970836;28;102970;-70
2024/02/11 10:52:45;;;;;;;6.63;2.63;;;;;;;8.18;71.56;96460.47;4973553;28;103484;-69
2024/02/11 10:55:14;;;;;;;5.25;2.08;;;;;;;8.18;71.36;96454.38;4967663;28;103027;-69
2024/02/11 10:57:47;;;;;;;10.15;2.55;;;;;;;8.39;71.94;96442.75;4974770;28;102958;-70
2024/02/11 11:00:22;;;;;;;4.97;2.15;;;;;;;8.52;72.10;96449.81;4973590;28;103837;-70
2024/02/11 11:02:55;;;;;;;6.40;2.60;;;;;;;8.37;70.72;96445.59;4980573;28;103742;-70
2024/02/11 11:05:30;;;;;;;5.35;2.50;;;;;;;8.40;71.79;96449.66;4984923;28;103287;-70
2024/02/11 11:08:04;;;;;;;4.25;2.08;;;;;;;8.38;71.63;96452.47;4986148;28;102972;-70
2024/02/11 11:10:36;;;;;;;3.97;2.00;;;;;;;8.45;70.71;96453.28;4968696;28;104214;-71
2024/02/11 11:13:05;;;;;;;6.85;2.63;;;;;;;8.38;70.33;96457.75;4971059;28;103432;-71
2024/02/11 11:15:36;;;;;;;5.60;2.42;;;;;;;8.46;71.09;96460.19;4969941;28;103300;-70
2024/02/11 11:18:13;;;;;;;5.97;2.47;;;;;;;8.65;71.44;96457.66;4974637;28;103069;-70
2024/02/11 11:20:52;;;;;;;6.55;2.60;;;;;;;8.49;69.98;96458.13;4972005;28;103003;-69
2024/02/11 11:23:25;;;;;;;4.05;2.30;;;;;;;8.38;70.43;96454.31;4973797;28;103990;-70
2024/02/11 11:25:56;;;;;;;3.60;1.75;;;;;;;8.49;70.46;96460.78;4974724;28;103257;-70
2024/02/11 11:28:30;;;;;;;5.43;1.95;;;;;;;8.69;69.36;96450.94;4972513;28;103750;-70
2024/02/11 11:31:01;;;;;;;7.47;2.30;;;;;;;8.38;69.54;96447.19;4971739;28;103822;-71
2024/02/11 11:33:36;;;;;;;3.40;1.90;;;;;;;9.08;68.87;96440.38;4988477;28;103368;-69
2024/02/11 11:36:05;;;;;;;4.32;2.50;;;;;;;9.22;68.33;96441.06;4970619;28;103217;-71
2024/02/11 11:38:34;;;;;;;4.57;1.90;;;;;;;9.09;69.07;96448.06;4968623;28;102822;-69
2024/02/11 11:41:02;;;;;;;5.25;1.85;;;;;;;9.15;67.87;96448.25;4969997;28;104233;-70
2024/02/11 11:43:34;;;;;;;5.25;2.10;;;;;;;9.51;68.95;96438.78;4969384;28;103147;-70
2024/02/11 11:46:05;;;;;;;4.35;2.13;;;;;;;9.25;66.58;96443.28;4967369;28;104210;-71
2024/02/11 11:48:41;;;;;;;3.63;1.80;;;;;;;9.21;67.08;96445.53;4981078;28;103854;-69
2024/02/11 11:51:16;;;;;;;3.13;1.65;;;;;;;9.45;67.47;96446.56;4980921;28;104018;-69
2024/02/11 11:53:49;;;;;;;5.13;2.13;;;;;;;9.24;65.46;96439.03;4992178;28;103927;-69
2024/02/11 11:56:34;;;;;;;3.25;1.38;;;;;;;9.32;66.28;96441.41;4975980;28;103986;-70
2024/02/11 11:59:29;;;;;;;3.83;1.63;;;;;;;9.29;65.20;96434.72;4972849;28;102787;-70
2024/02/11 12:02:22;;;;;;;4.63;1.50;;;;;;;9.34;63.55;96427.97;4974512;28;103152;-71
2024/02/11 12:05:30;;;;;;;3.45;1.10;;;;;;;9.55;65.28;96435.50;4964350;28;103645;-70
2024/02/11 12:08:08;;;;;;;4.10;1.33;;;;;;;9.76;63.61;96426.38;4972174;28;104296;-69
2024/02/11 12:10:41;;;;;;;2.63;1.30;;;;;;;10.13;64.52;96434.31;4982190;28;102890;-70
2024/02/11 12:13:21;;;;;;;3.42;1.10;;;;;;;10.04;62.75;96433.00;4975547;28;103206;-70
2024/02/11 12:15:51;;;;;;;2.65;1.23;;;;;;;10.62;62.49;96430.91;4973831;28;103557;-70
2024/02/11 12:18:20;;;;;;;4.45;1.50;;;;;;;10.92;59.67;96422.94;4979547;28;103082;-70
2024/02/11 12:20:50;;;;;;;4.85;1.38;;;;;;;10.45;61.83;96434.19;4973560;28;103071;-70
2024/02/11 12:23:18;;;;;;;5.72;1.55;;;;;;;10.06;62.25;96438.88;4967980;28;102743;-71
2024/02/11 12:25:52;;;;;;;5.45;1.60;;;;;;;10.42;61.08;96434.63;4988580;28;104394;-71
2024/02/11 12:28:47;;;;;;;6.15;1.45;;;;;;;10.94;60.07;96435.97;4977616;28;104338;-70
2024/02/11 12:31:19;;;;;;;5.00;1.48;;;;;;;10.82;61.42;96424.53;4979077;28;103969;-70
2024/02/11 12:33:49;;;;;;;6.57;1.35;;;;;;;10.63;61.93;96432.53;4972467;28;103251;-70
2024/02/11 12:36:21;;;;;;;2.63;1.25;;;;;;;10.55;62.57;96433.63;4968514;28;103338;-70
2024/02/11 12:38:51;;;;;;;3.63;0.82;;;;;;;10.29;62.34;96445.34;4968953;28;102671;-71
2024/02/11 12:41:22;;;;;;;3.25;1.17;;;;;;;10.08;61.92;96446.59;4969217;28;103131;-70
2024/02/11 12:43:52;;;;;;;2.10;0.90;;;;;;;10.09;62.98;96450.84;4966739;28;104054;-70
2024/02/11 12:46:21;;;;;;;3.60;1.00;;;;;;;9.79;61.59;96441.78;4965424;28;103437;-70
2024/02/11 12:48:52;;;;;;;3.17;0.90;;;;;;;9.84;62.51;96445.59;4958874;28;104076;-70
2024/02/11 12:51:22;;;;;;;4.28;1.08;;;;;;;10.16;61.03;96448.13;4968912;28;103286;-70
2024/02/11 12:53:50;;;;;;;3.17;1.05;;;;;;;11.31;60.11;96442.97;4967407;28;103719;-69
2024/02/11 12:56:19;;;;;;;4.65;1.20;;;;;;;11.56;59.68;96442.78;4967414;28;104397;-69
2024/02/11 12:58:49;;;;;;;2.50;1.05;;;;;;;11.67;58.15;96444.63;4967031;28;103312;-70
2024/02/11 13:01:19;;;;;;;1.33;0.70;;;;;;;11.37;58.76;96445.53;4969675;28;103038;-70
2024/02/11 13:03:47;;;;;;;3.40;0.90;;;;;;;11.22;58.45;96440.63;4966626;28;102804;-69
2024/02/11 13:06:26;;;;;;;2.83;1.02;;;;;;;11.22;58.35;96439.84;4979666;22;104579;-70
2024/02/11 13:08:55;;;;;;;4.68;1.13;;;;;;;11.20;58.20;96440.06;4944561;28;103312;-71
2024/02/11 13:11:23;;;;;;;2.45;0.90;;;;;;;10.90;58.38;96450.69;4954254;28;102859;-69
2024/02/11 13:13:58;;;;;;;3.05;1.30;;;;;;;10.69;58.66;96444.88;4957377;28;103418;-69
2024/02/11 13:16:27;;;;;;;1.70;0.98;;;;;;;10.52;59.04;96443.84;4950991;28;104376;-71
2024/02/11 13:19:01;;;;;;;2.35;0.90;;;;;;;10.27;60.62;96445.56;4953613;28;103439;-69
2024/02/11 13:21:31;;;;;;;1.55;0.80;;;;;;;10.23;60.79;96454.16;4957877;28;102936;-70
2024/02/11 13:23:59;;;;;;;1.17;0.73;;;;;;;10.28;61.70;96451.66;4952293;28;103894;-69
2024/02/11 13:26:27;;;;;;;2.17;0.90;;;;;;;10.13;61.54;96455.47;4956798;28;103942;-69
2024/02/11 13:28:55;;;;;;;2.95;1.00;;;;;;;10.01;60.49;96459.06;4953904;28;103193;-69
2024/02/11 13:31:24;;;;;;;3.08;1.38;;;;;;;10.10;60.35;96458.56;4949399;28;102845;-69
2024/02/11 13:33:57;;;;;;;1.48;0.80;;;;;;;10.08;63.32;96455.31;4967617;28;102971;-69
2024/02/11 13:36:28;;;;;;;2.35;1.00;;;;;;;10.35;64.60;96449.78;4974617;28;104338;-70
2024/02/11 13:39:00;;;;;;;2.42;0.80;;;;;;;10.52;63.47;96449.16;4952958;28;103116;-69
2024/02/11 13:41:28;;;;;;;2.55;0.70;;;;;;;11.33;61.75;96452.31;4946816;28;103181;-70
2024/02/11 13:43:57;;;;;;;2.05;1.33;;;;;;;11.22;61.85;96447.78;4952334;28;102710;-70
2024/02/11 13:46:26;;;;;;;3.42;0.90;;;;;;;11.66;59.62;96442.19;4950917;28;104830;-71
2024/02/11 13:48:54;;;;;;;1.80;1.00;;;;;;;11.64;57.69;96445.06;4956308;28;103355;-71
2024/02/11 13:51:25;;;;;;;1.90;0.80;;;;;;;11.56;59.29;96440.91;4946516;28;102677;-69
2024/02/11 13:53:53;;;;;;;2.80;1.20;;;;;;;11.56;60.82;96432.97;4960003;28;103049;-71
2024/02/11 13:56:23;;;;;;;1.60;0.70;;;;;;;11.10;59.19;96440.63;4950883;28;103378;-69
2024/02/11 13:58:51;;;;;;;3.55;1.45;;;;;;;10.92;59.18;96438.84;4946067;28;102890;-71
2024/02/11 14:01:20;;;;;;;3.38;1.05;;;;;;;10.88;57.68;96437.66;4948806;28;103078;-71
2024/02/11 14:03:53;;;;;;;1.25;0.60;;;;;;;10.78;57.04;96440.06;4963896;28;104108;-71
2024/02/11 14:06:30;;;;;;;;;;;;;;;10.58;57.19;96446.41;4949445;28;103271;-70
2024/02/11 14:09:22;;;;;;;2.23;0.80;;;;;;;10.40;56.93;96449.09;4950446;28;103423;-70
2024/02/11 14:12:10;;;;;;;2.40;0.82;;;;;;;10.10;57.17;96452.44;4945887;28;102823;-71
2024/02/11 14:14:39;;;;;;;2.90;0.60;;;;;;;10.22;58.26;96455.19;4959759;28;104403;-70
2024/02/11 14:17:07;;;;;;;1.58;0.50;;;;;;;10.38;58.92;96446.69;4949956;28;104281;-70
2024/02/11 14:19:35;;;;;;;2.20;0.85;;;;;;;10.36;58.71;96451.41;4945903;28;103204;-69
2024/02/11 14:22:12;;;;;;;1.40;0.80;;;;;;;10.38;59.23;96459.91;4970660;28;103839;-70
2024/02/11 14:24:40;;;;;;;4.20;0.80;;;;;;;9.98;59.14;96460.31;4949097;28;102858;-70
2024/02/11 14:27:10;;;;;;;2.83;0.70;;;;;;;9.99;60.39;96467.22;4955216;28;102748;-69
2024/02/11 14:30:42;;;;;;;1.08;0.60;;;;;;;9.88;61.01;96475.91;4965107;28;103079;-69
2024/02/11 14:34:03;;;;;;;3.30;1.00;;;;;;;9.20;66.09;96495.94;4938441;28;102948;-70
2024/02/11 14:36:44;;;;;;;2.17;0.80;;;;;;;8.95;69.24;96504.63;4967837;28;103135;-71
2024/02/11 14:39:14;;;;;;;2.08;0.73;;;;;;;8.65;70.10;96515.72;4953716;28;103224;-70
2024/02/11 14:41:42;;;;;;;2.08;0.90;;;;;;;8.51;71.52;96511.50;4957517;28;103215;-68
2024/02/11 14:44:13;;;;;;;2.28;0.85;;;;;;;8.99;70.16;96505.81;4970148;28;102748;-71
2024/02/11 14:46:41;;;;;;;1.48;0.70;;;;;;;9.15;68.61;96498.41;4953890;28;104043;-70
2024/02/11 14:49:10;;;;;;;1.13;0.70;;;;;;;9.43;69.33;96504.13;4954559;28;103354;-70
2024/02/11 14:51:39;;;;;;;1.88;0.80;;;;;;;9.64;67.64;96507.38;4948838;28;103293;-70
2024/02/11 14:54:10;;;;;;;2.33;0.77;;;;;;;9.57;68.35;96501.34;4947650;28;102998;-70
2024/02/11 14:56:42;;;;;;;1.02;0.60;;;;;;;9.78;68.62;96508.88;4951508;28;102926;-69
2024/02/11 14:59:11;;;;;;;0.90;0.70;;;;;;;9.75;67.93;96514.63;4953978;28;103331;-70
2024/02/11 15:01:41;;;;;;;0.93;0.80;;;;;;;10.09;67.43;96511.69;4957819;28;103197;-70
2024/02/11 15:04:37;;;;;;;9.00;0.90;;;;;;;9.79;68.24;96515.00;4958469;28;103038;-71
2024/02/11 15:07:06;;;;;;;1.65;0.50;;;;;;;9.84;66.02;96514.34;4958106;28;103461;-70
2024/02/11 15:09:34;;;;;;;1.15;0.60;;;;;;;9.97;64.92;96516.88;4958932;28;103254;-71
2024/02/11 15:12:10;;;;;;;4.05;1.00;;;;;;;10.06;65.90;96525.31;4963494;28;103281;-70
2024/02/11 15:14:44;;;;;;;1.65;0.98;;;;;;;9.88;64.68;96511.06;4963530;28;102709;-70
2024/02/11 15:17:44;;;;;;;1.83;0.68;;;;;;;10.00;64.05;96515.66;4949399;28;102903;-70
2024/02/11 15:20:45;;;;;;;3.03;0.80;;;;;;;9.78;63.97;96519.47;4961346;28;104243;-71
2024/02/11 15:23:13;;;;;;;1.67;0.63;;;;;;;9.74;64.30;96531.50;4961995;28;103272;-71
2024/02/11 15:25:46;;;;;;;2.63;0.60;;;;;;;9.60;63.93;96532.63;4972093;28;102562;-70
2024/02/11 15:31:51;;;;;;;;;;;;;;;9.52;65.37;96538.19;4938350;28;104798;-70
2024/02/11 15:34:30;;;;;;;2.05;0.90;;;;;;;9.38;63.49;96540.94;4958023;28;103354;-70
2024/02/11 15:37:12;;;;;;;1.65;0.65;;;;;;;9.31;64.01;96545.44;4955631;28;102711;-71
2024/02/11 15:39:48;;;;;;;3.72;0.85;;;;;;;9.30;64.06;96543.81;4944197;28;102868;-71
2024/02/11 15:42:19;;;;;;;1.67;0.65;;;;;;;9.51;63.76;96552.41;4956701;28;103403;-69
2024/02/11 15:44:49;;;;;;;2.45;0.80;;;;;;;9.48;63.74;96550.22;4950925;28;102757;-70
2024/02/11 15:47:18;;;;;;;2.85;1.13;;;;;;;9.32;62.89;96552.34;4955898;28;102979;-69
2024/02/11 15:49:50;;;;;;;2.47;0.80;;;;;;;9.53;63.44;96560.97;4953250;28;104489;-69
2024/02/11 15:52:18;;;;;;;1.65;0.70;;;;;;;9.65;64.05;96564.50;4952011;28;103374;-69
2024/02/11 15:54:52;;;;;;;2.63;0.70;;;;;;;9.66;64.08;96563.50;4952218;28;103185;-69
2024/02/11 15:57:23;;;;;;;0.93;0.57;;;;;;;9.46;63.95;96563.66;4956398;28;102886;-70
2024/02/11 15:59:53;;;;;;;2.47;0.90;;;;;;;9.24;64.18;96566.59;4953562;28;103670;-69
2024/02/11 16:05:56;;;;;;;3.35;1.05;;;;;;;9.41;64.26;96572.19;4952682;28;103203;-69
2024/02/11 16:08:23;;;;;;;3.72;1.00;;;;;;;9.51;64.83;96570.91;4949786;28;102784;-69
2024/02/11 16:10:54;;;;;;;1.52;0.98;;;;;;;9.41;64.31;96569.56;4949071;28;104527;-69
2024/02/11 16:13:32;;;;;;;1.20;0.90;;;;;;;9.16;64.62;96573.97;4952275;28;104208;-69
2024/02/11 16:16:01;;;;;;;3.95;1.30;;;;;;;9.13;64.03;96576.03;4951802;28;103744;-69
2024/02/11 16:18:29;;;;;;;1.92;0.80;;;;;;;9.02;63.96;96579.31;4956012;28;102804;-70
2024/02/11 16:20:59;;;;;;;2.60;0.60;;;;;;;8.92;64.26;96584.22;4945146;28;102641;-70
2024/02/11 16:23:43;;;;;;;2.20;0.77;;;;;;;8.90;63.96;96591.56;4954170;28;103213;-70
2024/02/11 16:26:15;;;;;;;0.57;0.50;;;;;;;8.81;65.17;96598.09;4951530;28;103094;-70
2024/02/11 16:28:44;;;;;;;1.42;0.82;;;;;;;8.96;65.07;96601.25;4946617;28;102729;-70
2024/02/11 16:31:13;;;;;;;2.90;0.90;;;;;;;8.99;64.97;96605.31;4948037;28;103779;-70
2024/02/11 16:33:41;;;;;;;2.10;0.77;;;;;;;8.83;64.45;96604.78;4947766;28;104242;-70
2024/02/11 16:36:16;;;;;;;2.75;0.65;;;;;;;8.87;64.65;96610.44;4954634;28;103369;-70
2024/02/11 16:42:05;;;;;;;2.55;0.80;;;;;;;8.72;64.42;96615.97;4951827;28;104369;-68
2024/02/11 16:44:56;;;;;;;0.70;0.60;;;;;;;8.74;64.45;96614.75;4959976;28;105985;-68
2024/02/11 16:47:28;;;;;;;0.75;0.60;;;;;;;8.67;63.98;96619.22;4963275;28;102774;-68
2024/02/11 16:49:56;;;;;;;1.98;0.70;;;;;;;8.67;64.63;96623.72;4951648;28;102801;-68
2024/02/11 16:52:26;;;;;;;1.95;0.90;;;;;;;8.64;65.02;96622.28;4951689;28;104397;-68
2024/02/11 16:54:55;;;;;;;1.30;0.70;;;;;;;8.67;65.08;96624.50;4966008;28;104240;-68
2024/02/11 16:57:25;;;;;;;3.55;0.80;;;;;;;8.53;65.90;96639.56;4973063;28;103306;-68
2024/02/11 17:00:01;;;;;;;1.95;0.75;;;;;;;8.65;65.98;96637.13;4951006;28;102731;-67
2024/02/11 17:02:31;;;;;;;3.15;0.90;;;;;;;8.42;65.79;96633.06;4958321;28;103856;-68